createdAt,value
2023-01-15T00:00:38.912Z,99288.16
2023-01-15T00:02:40.786Z,99293.38
2023-01-15T00:04:42.606Z,99295.59
2023-01-15T00:06:46.828Z,99308.97
2023-01-15T00:08:50.877Z,99310.63
2023-01-15T00:10:52.451Z,99304.94
2023-01-15T00:12:54.364Z,99282.75
2023-01-15T00:14:56.024Z,99297.97
2023-01-15T00:16:57.519Z,99285.47
2023-01-15T00:19:00.888Z,99298.19
2023-01-15T00:21:04.787Z,99286.06
2023-01-15T00:23:06.502Z,99284.97
2023-01-15T00:25:11.864Z,99298.69
2023-01-15T00:27:18.193Z,99278.38
2023-01-15T00:29:22.447Z,99283.00
2023-01-15T00:31:24.057Z,99289.00
2023-01-15T00:33:25.839Z,99289.84
2023-01-15T00:35:27.461Z,99282.06
2023-01-15T00:37:30.534Z,99283.72
2023-01-15T00:39:33.399Z,99279.69
2023-01-15T00:41:36.391Z,99277.81
2023-01-15T00:43:38.011Z,99286.50
2023-01-15T00:45:39.638Z,99282.75
2023-01-15T00:47:43.714Z,99277.09
2023-01-15T00:49:45.438Z,99276.84
2023-01-15T00:51:47.006Z,99283.69
2023-01-15T00:53:48.588Z,99290.75
2023-01-15T00:55:50.210Z,99294.09
2023-01-15T00:57:53.127Z,99297.38
2023-01-15T00:59:54.650Z,99290.06
2023-01-15T01:01:56.423Z,99287.91
2023-01-15T01:03:58.190Z,99291.72
2023-01-15T01:06:00.564Z,99286.63
2023-01-15T01:08:02.239Z,99298.91
2023-01-15T01:10:04.490Z,99292.63
2023-01-15T01:12:06.555Z,99283.22
2023-01-15T01:14:11.933Z,99299.25
2023-01-15T01:16:23.622Z,99303.38
2023-01-15T01:18:25.359Z,99307.16
2023-01-15T01:20:27.181Z,99308.81
2023-01-15T01:22:28.678Z,99302.31
2023-01-15T01:24:30.205Z,99302.09
2023-01-15T01:26:31.734Z,99307.25
2023-01-15T01:28:33.352Z,99302.91
2023-01-15T01:30:38.491Z,99303.25
2023-01-15T01:32:43.520Z,99313.03
2023-01-15T01:34:45.210Z,99312.25
2023-01-15T01:36:48.211Z,99317.41
2023-01-15T01:38:50.022Z,99357.69
2023-01-15T01:40:51.680Z,99394.09
2023-01-15T01:42:54.474Z,99381.78
2023-01-15T01:45:03.275Z,99389.56
2023-01-15T01:47:09.771Z,99403.63
2023-01-15T01:49:14.411Z,99402.09
2023-01-15T01:51:17.231Z,99409.53
2023-01-15T01:53:23.224Z,99404.59
2023-01-15T01:55:27.622Z,99409.31
2023-01-15T01:57:29.239Z,99400.78
2023-01-15T01:59:31.909Z,99407.97
2023-01-15T02:01:33.804Z,99407.88
2023-01-15T02:03:38.203Z,99421.31
2023-01-15T02:05:43.769Z,99408.19
2023-01-15T02:07:45.244Z,99428.09
2023-01-15T02:09:46.743Z,99435.66
2023-01-15T02:11:51.670Z,99434.47
2023-01-15T02:14:00.456Z,99437.88
2023-01-15T02:16:11.392Z,99440.00
2023-01-15T02:18:20.539Z,99445.28
2023-01-15T02:20:31.540Z,99444.69
2023-01-15T02:22:41.697Z,99452.47
2023-01-15T02:24:57.949Z,99458.59
2023-01-15T02:27:12.153Z,99459.25
2023-01-15T02:29:19.750Z,99466.66
2023-01-15T02:31:27.707Z,99468.31
2023-01-15T02:33:36.270Z,99466.75
2023-01-15T02:35:45.017Z,99467.81
2023-01-15T02:37:52.787Z,99465.09
2023-01-15T02:40:03.624Z,99452.00
2023-01-15T02:42:10.143Z,99464.13
2023-01-15T02:44:14.234Z,99461.06
2023-01-15T02:46:24.431Z,99454.19
2023-01-15T02:48:31.530Z,99463.38
2023-01-15T02:50:39.336Z,99464.44
2023-01-15T02:52:44.651Z,99459.47
2023-01-15T02:54:50.105Z,99453.44
2023-01-15T02:56:53.230Z,99450.34
2023-01-15T02:59:00.668Z,99455.78
2023-01-15T03:01:07.618Z,99441.63
2023-01-15T03:03:14.931Z,99435.38
2023-01-15T03:05:22.427Z,99441.00
2023-01-15T03:07:29.857Z,99435.00
2023-01-15T03:09:32.520Z,99438.97
2023-01-15T03:11:38.158Z,99442.78
2023-01-15T03:13:50.800Z,99431.94
2023-01-15T03:16:01.909Z,99428.59
2023-01-15T03:18:06.561Z,99434.25
2023-01-15T03:20:16.572Z,99440.94
2023-01-15T03:22:23.415Z,99449.06
2023-01-15T03:24:30.559Z,99447.44
2023-01-15T03:26:32.133Z,99449.78
2023-01-15T03:28:38.027Z,99448.94
2023-01-15T03:30:39.709Z,99446.44
2023-01-15T03:32:43.002Z,99446.44
2023-01-15T03:34:46.891Z,99455.84
2023-01-15T03:36:48.866Z,99461.25
2023-01-15T03:38:53.375Z,99461.25
2023-01-15T03:41:06.061Z,99453.34
2023-01-15T03:43:13.728Z,99440.88
2023-01-15T03:45:23.498Z,99446.50
2023-01-15T03:47:37.390Z,99461.91
2023-01-15T03:49:51.791Z,99456.50
2023-01-15T03:52:00.995Z,99468.63
2023-01-15T03:54:10.711Z,99477.81
2023-01-15T03:56:18.251Z,99467.41
2023-01-15T03:58:24.157Z,99465.75
2023-01-15T04:00:27.576Z,99468.09
2023-01-15T04:02:30.827Z,99460.16
2023-01-15T04:04:33.504Z,99461.00
2023-01-15T04:06:40.077Z,99461.25
2023-01-15T04:08:45.639Z,99465.00
2023-01-15T04:10:52.279Z,99460.41
2023-01-15T04:12:53.826Z,99449.19
2023-01-15T04:14:56.872Z,99452.72
2023-01-15T04:16:58.649Z,99454.81
2023-01-15T04:19:00.879Z,99453.41
2023-01-15T04:21:05.579Z,99454.22
2023-01-15T04:23:09.104Z,99460.47
2023-01-15T04:25:11.173Z,99452.56
2023-01-15T04:27:14.021Z,99454.91
2023-01-15T04:29:15.622Z,99453.22
2023-01-15T04:31:17.581Z,99455.94
2023-01-15T04:33:21.720Z,99458.06
2023-01-15T04:35:23.464Z,99456.19
2023-01-15T04:37:25.266Z,99444.72
2023-01-15T04:39:28.214Z,99452.00
2023-01-15T04:41:29.902Z,99454.13
2023-01-15T04:43:31.459Z,99446.00
2023-01-15T04:45:33.196Z,99456.84
2023-01-15T04:47:34.746Z,99454.13
2023-01-15T04:49:36.275Z,99458.72
2023-01-15T04:51:38.148Z,99451.25
2023-01-15T04:53:39.762Z,99459.38
2023-01-15T04:55:42.841Z,99452.34
2023-01-15T04:57:44.502Z,99447.13
2023-01-15T04:59:46.081Z,99451.72
2023-01-15T05:02:02.501Z,99448.16
2023-01-15T05:04:06.233Z,99444.03
2023-01-15T05:06:10.418Z,99453.00
2023-01-15T05:08:12.066Z,99454.28
2023-01-15T05:10:14.017Z,99441.78
2023-01-15T05:12:17.391Z,99444.50
2023-01-15T05:14:18.926Z,99437.41
2023-01-15T05:16:27.166Z,99443.88
2023-01-15T05:18:28.894Z,99433.03
2023-01-15T05:20:30.563Z,99433.28
2023-01-15T05:22:32.193Z,99435.97
2023-01-15T05:24:33.855Z,99428.91
2023-01-15T05:26:36.213Z,99421.22
2023-01-15T05:28:39.196Z,99411.22
2023-01-15T05:30:40.824Z,99431.44
2023-01-15T05:32:44.605Z,99436.84
2023-01-15T05:34:46.197Z,99421.88
2023-01-15T05:36:47.740Z,99421.69
2023-01-15T05:38:49.614Z,99412.72
2023-01-15T05:40:51.221Z,99406.69
2023-01-15T05:42:53.920Z,99397.53
2023-01-15T05:44:56.877Z,99393.59
2023-01-15T05:47:00.716Z,99396.31
2023-01-15T05:49:04.126Z,99417.13
2023-01-15T05:51:06.067Z,99425.03
2023-01-15T05:53:08.160Z,99427.75
2023-01-15T05:55:09.884Z,99445.88
2023-01-15T05:57:12.932Z,99453.78
2023-01-15T05:59:15.583Z,99447.53
2023-01-15T06:01:20.684Z,99441.28
2023-01-15T06:03:23.108Z,99444.19
2023-01-15T06:05:24.715Z,99450.44
2023-01-15T06:07:27.695Z,99445.28
2023-01-15T06:09:29.372Z,99449.63
2023-01-15T06:11:31.342Z,99451.72
2023-01-15T06:13:39.329Z,99439.88
2023-01-15T06:15:41.197Z,99440.66
2023-01-15T06:17:44.179Z,99441.94
2023-01-15T06:19:45.885Z,99440.06
2023-01-15T06:21:47.604Z,99438.78
2023-01-15T06:23:50.422Z,99443.59
2023-01-15T06:25:52.066Z,99437.97
2023-01-15T06:27:53.703Z,99437.38
2023-01-15T06:29:55.434Z,99449.22
2023-01-15T06:31:57.108Z,99441.13
2023-01-15T06:34:00.215Z,99442.97
2023-01-15T06:36:03.809Z,99453.81
2023-01-15T06:38:05.359Z,99456.31
2023-01-15T06:40:08.085Z,99463.59
2023-01-15T06:42:09.665Z,99471.13
2023-01-15T06:44:13.586Z,99467.59
2023-01-15T06:46:17.397Z,99468.41
2023-01-15T06:48:18.930Z,99464.88
2023-01-15T06:50:21.916Z,99456.97
2023-01-15T06:52:25.216Z,99453.22
2023-01-15T06:54:27.007Z,99462.63
2023-01-15T06:56:28.522Z,99476.56
2023-01-15T06:58:30.078Z,99479.50
2023-01-15T07:00:31.806Z,99485.13
2023-01-15T07:02:33.497Z,99482.41
2023-01-15T07:04:35.007Z,99461.00
2023-01-15T07:06:37.887Z,99469.34
2023-01-15T07:08:39.746Z,99464.97
2023-01-15T07:10:41.422Z,99469.16
2023-01-15T07:12:43.137Z,99479.97
2023-01-15T07:14:47.316Z,99483.50
2023-01-15T07:16:49.472Z,99489.16
2023-01-15T07:18:51.167Z,99499.59
2023-01-15T07:20:54.988Z,99496.88
2023-01-15T07:22:58.068Z,99497.94
2023-01-15T07:24:59.617Z,99485.69
2023-01-15T07:27:01.440Z,99489.41
2023-01-15T07:29:03.426Z,99493.16
2023-01-15T07:31:05.261Z,99494.44
2023-01-15T07:33:06.787Z,99495.91
2023-01-15T07:35:09.148Z,99493.84
2023-01-15T07:37:11.252Z,99495.28
2023-01-15T07:39:15.112Z,99505.50
2023-01-15T07:41:16.803Z,99500.94
2023-01-15T07:43:18.425Z,99499.06
2023-01-15T07:45:21.867Z,99506.34
2023-01-15T07:47:26.912Z,99498.44
2023-01-15T07:49:28.637Z,99485.34
2023-01-15T07:51:30.246Z,99496.41
2023-01-15T07:53:31.870Z,99499.91
2023-01-15T07:55:35.679Z,99518.03
2023-01-15T07:57:37.832Z,99522.63
2023-01-15T07:59:39.471Z,99508.47
2023-01-15T08:01:41.260Z,99507.44
2023-01-15T08:03:42.936Z,99516.38
2023-01-15T08:05:44.515Z,99514.94
2023-01-15T08:07:46.167Z,99513.03
2023-01-15T08:09:47.711Z,99500.34
2023-01-15T08:11:50.716Z,99512.63
2023-01-15T08:13:52.537Z,99518.06
2023-01-15T08:15:54.207Z,99512.63
2023-01-15T08:17:55.873Z,99527.22
2023-01-15T08:19:57.550Z,99518.06
2023-01-15T08:21:59.729Z,99514.94
2023-01-15T08:24:01.314Z,99511.22
2023-01-15T08:26:02.809Z,99512.88
2023-01-15T08:28:05.941Z,99516.41
2023-01-15T08:30:10.843Z,99509.94
2023-01-15T08:32:12.522Z,99500.19
2023-01-15T08:34:14.145Z,99507.22
2023-01-15T08:36:15.923Z,99505.38
2023-01-15T08:38:17.946Z,99510.56
2023-01-15T08:40:19.623Z,99511.59
2023-01-15T08:42:21.408Z,99511.41
2023-01-15T08:44:24.811Z,99518.69
2023-01-15T08:46:26.394Z,99519.72
2023-01-15T08:48:29.932Z,99512.44
2023-01-15T08:50:31.671Z,99518.44
2023-01-15T08:52:33.279Z,99518.44
2023-01-15T08:54:34.886Z,99518.44
2023-01-15T08:56:36.686Z,99521.97
2023-01-15T08:58:38.209Z,99526.56
2023-01-15T09:00:42.504Z,99517.22
2023-01-15T09:02:44.068Z,99516.13
2023-01-15T09:04:45.859Z,99527.19
2023-01-15T09:06:48.570Z,99517.22
2023-01-15T09:08:50.264Z,99524.06
2023-01-15T09:10:51.844Z,99522.19
2023-01-15T09:12:53.505Z,99528.41
2023-01-15T09:14:59.620Z,99531.97
2023-01-15T09:17:09.486Z,99523.84
2023-01-15T09:19:11.297Z,99507.63
2023-01-15T09:21:12.846Z,99524.66
2023-01-15T09:23:14.662Z,99548.19
2023-01-15T09:25:16.873Z,99518.00
2023-01-15T09:27:18.627Z,99514.66
2023-01-15T09:29:20.380Z,99519.88
2023-01-15T09:31:22.450Z,99533.38
2023-01-15T09:33:25.517Z,99522.34
2023-01-15T09:35:27.169Z,99515.69
2023-01-15T09:37:28.844Z,99509.44
2023-01-15T09:39:30.541Z,99515.44
2023-01-15T09:41:48.119Z,99515.44
2023-01-15T09:43:59.000Z,99510.66
2023-01-15T09:46:08.720Z,99510.44
2023-01-15T09:48:43.885Z,99523.56
2023-01-15T09:50:58.729Z,99533.53
2023-01-15T09:53:18.251Z,99522.72
2023-01-15T09:55:21.794Z,99514.81
2023-01-15T09:57:25.460Z,99509.19
2023-01-15T09:59:34.884Z,99512.09
2023-01-15T10:01:38.908Z,99511.06
2023-01-15T10:03:45.105Z,99506.25
2023-01-15T10:05:51.230Z,99495.66
2023-01-15T10:08:00.759Z,99497.31
2023-01-15T10:10:06.425Z,99499.19
2023-01-15T10:12:16.972Z,99497.31
2023-01-15T10:14:32.291Z,99492.72
2023-01-15T10:16:33.988Z,99494.38
2023-01-15T10:18:35.983Z,99506.03
2023-01-15T10:20:52.581Z,99503.13
2023-01-15T10:23:16.259Z,99505.59
2023-01-15T10:25:24.973Z,99504.75
2023-01-15T10:27:31.220Z,99516.44
2023-01-15T10:29:46.418Z,99512.44
2023-01-15T10:31:54.840Z,99500.19
2023-01-15T10:34:14.141Z,99510.38
2023-01-15T10:36:29.048Z,99508.50
2023-01-15T10:38:46.072Z,99508.88
2023-01-15T10:41:14.595Z,99508.66
2023-01-15T10:43:21.264Z,99512.19
2023-01-15T10:45:25.525Z,99505.53
2023-01-15T10:47:34.136Z,99505.94
2023-01-15T10:49:37.796Z,99495.94
2023-01-15T10:51:43.387Z,99486.78
2023-01-15T10:53:51.961Z,99495.50
2023-01-15T10:56:00.145Z,99488.66
2023-01-15T10:58:10.578Z,99489.06
2023-01-15T11:00:13.656Z,99498.59
2023-01-15T11:02:27.686Z,99496.13
2023-01-15T11:04:31.885Z,99493.59
2023-01-15T11:06:33.492Z,99504.44
2023-01-15T11:09:07.205Z,99494.03
2023-01-15T11:11:16.099Z,99495.69
2023-01-15T11:13:21.369Z,99486.91
2023-01-15T11:15:24.644Z,99487.75
2023-01-15T11:17:34.171Z,99487.94
2023-01-15T11:19:39.978Z,99496.06
2023-01-15T11:21:42.935Z,99485.03
2023-01-15T11:23:46.703Z,99473.53
2023-01-15T11:25:52.175Z,99471.06
2023-01-15T11:27:54.252Z,99494.78
2023-01-15T11:29:57.940Z,99486.03
2023-01-15T11:32:00.617Z,99486.66
2023-01-15T11:34:21.642Z,99486.41
2023-01-15T11:36:26.061Z,99482.06
2023-01-15T11:38:29.187Z,99481.22
2023-01-15T11:40:34.704Z,99480.78
2023-01-15T11:42:37.663Z,99483.50
2023-01-15T11:44:39.348Z,99483.03
2023-01-15T11:46:41.714Z,99486.19
2023-01-15T11:48:45.349Z,99481.63
2023-01-15T11:50:51.510Z,99484.72
2023-01-15T11:52:57.803Z,99489.50
2023-01-15T11:54:59.921Z,99477.63
2023-01-15T11:57:04.440Z,99479.31
2023-01-15T11:59:12.422Z,99473.88
2023-01-15T12:01:21.367Z,99474.28
2023-01-15T12:03:27.755Z,99472.59
2023-01-15T12:05:32.177Z,99480.28
2023-01-15T12:07:39.321Z,99459.25
2023-01-15T12:10:00.887Z,99454.78
2023-01-15T12:12:14.074Z,99465.63
2023-01-15T12:14:51.270Z,99464.59
2023-01-15T12:25:44.942Z,99466.66
2023-01-15T12:28:03.031Z,99484.00
2023-01-15T12:30:21.965Z,99463.16
2023-01-15T12:32:29.909Z,99454.22
2023-01-15T12:34:39.501Z,99452.34
2023-01-15T12:36:49.069Z,99449.00
2023-01-15T12:38:56.461Z,99456.28
2023-01-15T12:41:02.332Z,99453.38
2023-01-15T12:43:16.303Z,99447.06
2023-01-15T12:45:24.240Z,99450.38
2023-01-15T12:47:37.241Z,99458.25
2023-01-15T12:49:48.232Z,99447.88
2023-01-15T12:51:56.170Z,99445.56
2023-01-15T12:54:04.085Z,99453.09
2023-01-15T12:56:14.339Z,99443.09
2023-01-15T12:58:31.267Z,99449.09
2023-01-15T13:00:40.843Z,99450.91
2023-01-15T13:03:00.244Z,99440.69
2023-01-15T13:05:19.349Z,99440.69
2023-01-15T13:07:33.813Z,99435.03
2023-01-15T13:09:41.362Z,99431.53
2023-01-15T13:11:48.680Z,99437.81
2023-01-15T13:13:51.999Z,99431.06
2023-01-15T13:16:04.630Z,99437.06
2023-01-15T13:18:17.064Z,99436.25
2023-01-15T13:20:34.377Z,99447.31
2023-01-15T13:22:47.360Z,99450.03
2023-01-15T13:25:20.088Z,99444.16
2023-01-15T13:27:34.558Z,99445.88
2023-01-15T13:29:50.339Z,99442.34
2023-01-15T13:31:59.717Z,99436.69
2023-01-15T13:34:07.515Z,99446.09
2023-01-15T13:36:14.989Z,99434.66
2023-01-15T13:38:24.775Z,99453.03
2023-01-15T13:40:34.245Z,99437.81
2023-01-15T13:42:39.994Z,99436.97
2023-01-15T13:44:49.615Z,99449.47
2023-01-15T13:47:01.377Z,99451.97
2023-01-15T13:49:03.248Z,99445.09
2023-01-15T13:51:07.145Z,99433.81
2023-01-15T13:53:20.778Z,99434.66
2023-01-15T13:55:29.865Z,99438.19
2023-01-15T13:57:41.800Z,99428.56
2023-01-15T13:59:46.563Z,99432.03
2023-01-15T14:01:49.556Z,99432.03
2023-01-15T14:04:00.931Z,99423.22
2023-01-15T14:06:04.890Z,99440.69
2023-01-15T14:08:16.618Z,99429.03
2023-01-15T14:10:27.099Z,99419.47
2023-01-15T14:12:46.315Z,99415.84
2023-01-15T14:15:24.305Z,99417.91
2023-01-15T14:17:54.021Z,99410.06
2023-01-15T14:20:15.314Z,99408.03
2023-01-15T14:22:37.556Z,99413.06
2023-01-15T14:25:07.541Z,99420.34
2023-01-15T14:27:19.626Z,99411.47
2023-01-15T14:29:59.295Z,99413.78
2023-01-15T14:32:09.977Z,99401.75
2023-01-15T14:34:17.233Z,99410.53
2023-01-15T14:36:24.408Z,99408.28
2023-01-15T14:38:28.239Z,99412.72
2023-01-15T14:40:32.727Z,99410.22
2023-01-15T14:42:38.840Z,99402.56
2023-01-15T14:44:42.838Z,99409.25
2023-01-15T14:46:44.438Z,99405.09
2023-01-15T14:48:46.032Z,99399.28
2023-01-15T14:50:49.059Z,99394.34
2023-01-15T14:52:51.985Z,99397.09
2023-01-15T14:54:54.456Z,99407.94
2023-01-15T14:56:59.502Z,99405.66
2023-01-15T14:59:09.067Z,99409.03
2023-01-15T15:01:19.073Z,99395.50
2023-01-15T15:03:33.118Z,99401.34
2023-01-15T15:05:35.279Z,99397.19
2023-01-15T15:07:43.366Z,99396.44
2023-01-15T15:09:48.084Z,99397.09
2023-01-15T15:11:49.662Z,99394.41
2023-01-15T15:13:56.424Z,99379.81
2023-01-15T15:16:07.619Z,99382.13
2023-01-15T15:18:21.501Z,99377.78
2023-01-15T15:20:30.276Z,99387.97
2023-01-15T15:22:32.513Z,99391.72
2023-01-15T15:24:43.596Z,99389.25
2023-01-15T15:26:45.365Z,99393.00
2023-01-15T15:28:56.008Z,99389.47
2023-01-15T15:31:00.420Z,99380.31
2023-01-15T15:33:04.710Z,99381.34
2023-01-15T15:35:22.573Z,99375.94
2023-01-15T15:37:26.673Z,99369.09
2023-01-15T15:39:35.641Z,99358.88
2023-01-15T15:41:41.055Z,99370.16
2023-01-15T15:43:50.310Z,99365.78
2023-01-15T15:45:52.996Z,99361.19
2023-01-15T15:47:56.687Z,99373.88
2023-01-15T15:49:58.386Z,99374.97
2023-01-15T15:51:59.881Z,99362.09
2023-01-15T15:54:13.737Z,99364.59
2023-01-15T15:56:15.955Z,99369.59
2023-01-15T15:58:24.407Z,99380.19
2023-01-15T16:00:30.294Z,99370.66
2023-01-15T16:02:34.786Z,99372.72
2023-01-15T16:04:36.429Z,99366.47
2023-01-15T16:06:37.928Z,99366.47
2023-01-15T16:08:39.490Z,99375.28
2023-01-15T16:10:41.369Z,99370.06
2023-01-15T16:12:46.559Z,99376.53
2023-01-15T16:14:51.497Z,99379.22
2023-01-15T16:16:54.512Z,99375.72
2023-01-15T16:18:58.732Z,99360.16
2023-01-15T16:21:00.547Z,99368.47
2023-01-15T16:23:04.395Z,99370.97
2023-01-15T16:25:20.807Z,99344.06
2023-01-15T16:27:26.451Z,99346.78
2023-01-15T16:29:31.104Z,99344.31
2023-01-15T16:31:35.527Z,99354.09
2023-01-15T16:33:38.347Z,99356.94
2023-01-15T16:35:42.072Z,99362.16
2023-01-15T16:37:48.126Z,99341.34
2023-01-15T16:39:49.863Z,99347.34
2023-01-15T16:41:55.807Z,99341.75
2023-01-15T16:44:01.431Z,99335.88
2023-01-15T16:46:16.278Z,99337.75
2023-01-15T16:48:27.959Z,99332.13
2023-01-15T16:50:31.574Z,99347.75
2023-01-15T16:52:49.362Z,99354.38
2023-01-15T16:54:51.074Z,99369.56
2023-01-15T16:56:54.269Z,99341.28
2023-01-15T16:58:55.763Z,99347.28
2023-01-15T17:00:57.351Z,99352.50
2023-01-15T17:02:59.007Z,99343.56
2023-01-15T17:05:15.099Z,99356.03
2023-01-15T17:07:20.447Z,99353.31
2023-01-15T17:09:22.328Z,99330.84
2023-01-15T17:11:26.879Z,99330.81
2023-01-15T17:13:34.149Z,99339.75
2023-01-15T17:15:40.685Z,99321.19
2023-01-15T17:17:42.974Z,99333.06
2023-01-15T17:19:44.908Z,99303.09
2023-01-15T17:21:56.138Z,99328.03
2023-01-15T17:24:05.967Z,99336.16
2023-01-15T17:26:08.069Z,99331.94
2023-01-15T17:28:10.663Z,99333.63
2023-01-15T17:30:13.117Z,99336.91
2023-01-15T17:32:17.592Z,99334.84
2023-01-15T17:34:19.101Z,99324.22
2023-01-15T17:36:21.499Z,99329.63
2023-01-15T17:38:24.458Z,99344.00
2023-01-15T17:40:26.517Z,99337.91
2023-01-15T17:42:28.056Z,99351.00
2023-01-15T17:44:29.762Z,99342.88
2023-01-15T17:46:31.370Z,99344.16
2023-01-15T17:48:33.015Z,99347.25
2023-01-15T17:50:39.169Z,99348.75
2023-01-15T17:52:41.373Z,99347.00
2023-01-15T17:54:46.957Z,99353.50
2023-01-15T17:56:48.516Z,99349.72
2023-01-15T17:58:51.898Z,99357.84
2023-01-15T18:00:55.353Z,99358.22
2023-01-15T18:02:57.558Z,99351.75
2023-01-15T18:04:59.229Z,99355.31
2023-01-15T18:07:01.126Z,99378.81
2023-01-15T18:09:07.910Z,99381.31
2023-01-15T18:11:11.177Z,99383.19
2023-01-15T18:13:12.681Z,99371.91
2023-01-15T18:15:17.709Z,99369.22
2023-01-15T18:17:19.413Z,99372.75
2023-01-15T18:19:23.160Z,99385.25
2023-01-15T18:21:24.722Z,99379.38
2023-01-15T18:23:27.897Z,99393.13
2023-01-15T18:25:29.623Z,99391.47
2023-01-15T18:27:34.857Z,99391.25
2023-01-15T18:29:36.441Z,99399.81
2023-01-15T18:31:40.458Z,99396.66
2023-01-15T18:33:42.157Z,99396.44
2023-01-15T18:35:43.748Z,99410.81
2023-01-15T18:37:47.416Z,99406.81
2023-01-15T18:39:49.332Z,99405.16
2023-01-15T18:41:52.335Z,99425.78
2023-01-15T18:43:57.628Z,99440.97
2023-01-15T18:46:01.075Z,99442.84
2023-01-15T18:48:04.548Z,99424.94
2023-01-15T18:50:06.777Z,99439.13
2023-01-15T18:52:08.659Z,99429.38
2023-01-15T18:54:12.248Z,99441.38
2023-01-15T18:56:13.899Z,99440.78
2023-01-15T18:58:17.997Z,99430.41
2023-01-15T19:00:23.179Z,99449.13
2023-01-15T19:02:25.111Z,99450.19
2023-01-15T19:04:28.479Z,99450.78
2023-01-15T19:06:32.383Z,99451.03
2023-01-15T19:08:34.035Z,99446.03
2023-01-15T19:10:35.986Z,99458.72
2023-01-15T19:12:38.471Z,99457.09
2023-01-15T19:14:40.354Z,99464.38
2023-01-15T19:16:43.438Z,99462.69
2023-01-15T19:18:47.547Z,99454.19
2023-01-15T19:20:51.556Z,99464.81
2023-01-15T19:22:53.286Z,99476.88
2023-01-15T19:24:57.053Z,99471.69
2023-01-15T19:26:58.780Z,99463.59
2023-01-15T19:29:01.740Z,99470.25
2023-01-15T19:31:07.163Z,99474.03
2023-01-15T19:33:10.650Z,99475.25
2023-01-15T19:35:12.379Z,99479.03
2023-01-15T19:37:14.040Z,99488.00
2023-01-15T19:39:17.709Z,99480.28
2023-01-15T19:41:20.968Z,99491.34
2023-01-15T19:43:24.517Z,99487.59
2023-01-15T19:45:26.163Z,99494.66
2023-01-15T19:47:29.879Z,99495.72
2023-01-15T19:49:36.585Z,99511.72
2023-01-15T19:51:38.217Z,99498.41
2023-01-15T19:53:40.207Z,99514.84
2023-01-15T19:55:44.029Z,99502.38
2023-01-15T19:57:48.076Z,99507.34
2023-01-15T19:59:50.321Z,99510.88
2023-01-15T20:01:52.033Z,99505.69
2023-01-15T20:03:53.968Z,99513.81
2023-01-15T20:05:57.255Z,99508.41
2023-01-15T20:07:59.102Z,99512.16
2023-01-15T20:10:03.606Z,99511.31
2023-01-15T20:12:05.739Z,99516.13
2023-01-15T20:14:09.080Z,99518.84
2023-01-15T20:16:12.493Z,99533.00
2023-01-15T20:18:14.480Z,99524.88
2023-01-15T20:20:17.996Z,99514.69
2023-01-15T20:22:21.030Z,99527.19
2023-01-15T20:24:22.725Z,99535.50
2023-01-15T20:26:24.340Z,99531.16
2023-01-15T20:28:26.211Z,99536.97
2023-01-15T20:30:28.241Z,99522.63
2023-01-15T20:32:29.879Z,99532.00
2023-01-15T20:34:31.596Z,99532.03
2023-01-15T20:36:33.221Z,99540.16
2023-01-15T20:38:36.143Z,99540.34
2023-01-15T20:43:23.089Z,99542.91
2023-01-15T20:45:24.713Z,99550.59
2023-01-15T20:47:27.604Z,99540.81
2023-01-15T20:49:29.309Z,99542.91
2023-01-15T20:51:30.915Z,99535.84
2023-01-15T20:53:34.576Z,99547.50
2023-01-15T20:55:53.924Z,99543.97
2023-01-15T20:58:00.506Z,99556.66
2023-01-15T21:00:07.914Z,99557.69
2023-01-15T21:02:11.135Z,99551.88
2023-01-15T21:04:12.832Z,99546.28
2023-01-15T21:06:14.465Z,99562.91
2023-01-15T21:08:17.890Z,99556.69
2023-01-15T21:10:20.193Z,99552.31
2023-01-15T21:12:23.173Z,99559.59
2023-01-15T21:14:25.313Z,99563.31
2023-01-15T21:16:27.058Z,99552.75
2023-01-15T21:18:30.761Z,99561.28
2023-01-15T21:20:32.467Z,99573.31
2023-01-15T21:22:34.024Z,99557.75
2023-01-15T21:24:35.939Z,99575.19
2023-01-15T21:26:43.632Z,99586.22
2023-01-15T21:28:46.691Z,99581.66
2023-01-15T21:30:48.228Z,99583.28
2023-01-15T21:32:50.056Z,99586.44
2023-01-15T21:34:51.763Z,99588.94
2023-01-15T21:36:53.435Z,99585.59
2023-01-15T21:38:55.232Z,99587.06
2023-01-15T21:40:56.807Z,99597.25
2023-01-15T21:42:58.378Z,99600.34
2023-01-15T21:45:01.559Z,99599.50
2023-01-15T21:47:05.111Z,99603.28
2023-01-15T21:49:06.784Z,99592.03
2023-01-15T21:51:08.340Z,99598.06
2023-01-15T21:53:10.243Z,99603.88
2023-01-15T21:55:14.723Z,99603.69
2023-01-15T21:57:18.937Z,99602.63
2023-01-15T21:59:22.154Z,99602.03
2023-01-15T22:01:25.411Z,99616.13
2023-01-15T22:03:27.031Z,99609.94
2023-01-15T22:05:28.562Z,99605.31
2023-01-15T22:07:30.325Z,99617.59
2023-01-15T22:09:33.306Z,99616.13
2023-01-15T22:11:36.016Z,99613.44
2023-01-15T22:13:39.663Z,99618.03
2023-01-15T22:15:43.569Z,99626.94
2023-01-15T22:17:49.653Z,99633.19
2023-01-15T22:19:51.426Z,99625.91
2023-01-15T22:21:54.749Z,99641.53
2023-01-15T22:23:56.376Z,99640.69
2023-01-15T22:26:00.455Z,99636.53
2023-01-15T22:28:01.973Z,99640.88
2023-01-15T22:30:04.085Z,99637.34
2023-01-15T22:32:06.510Z,99639.84
2023-01-15T22:34:09.655Z,99641.94
2023-01-15T22:36:13.183Z,99643.59
2023-01-15T22:38:16.725Z,99649.00
2023-01-15T22:40:19.005Z,99650.06
2023-01-15T22:42:22.659Z,99645.69
2023-01-15T22:44:24.486Z,99641.13
2023-01-15T22:46:27.233Z,99659.41
2023-01-15T22:48:28.776Z,99649.00
2023-01-15T22:50:31.682Z,99657.13
2023-01-15T22:52:33.437Z,99665.66
2023-01-15T22:54:35.052Z,99661.28
2023-01-15T22:56:36.604Z,99671.25
2023-01-15T22:58:38.117Z,99663.38
2023-01-15T23:00:39.805Z,99661.69
2023-01-15T23:02:41.613Z,99666.28
2023-01-15T23:04:43.333Z,99672.09
2023-01-15T23:06:46.782Z,99675.00
2023-01-15T23:08:48.463Z,99675.00
2023-01-15T23:10:52.028Z,99668.34
2023-01-15T23:12:53.633Z,99661.06
2023-01-15T23:14:55.429Z,99671.28
2023-01-15T23:16:57.018Z,99674.81
2023-01-15T23:18:58.668Z,99679.38
2023-01-15T23:21:05.063Z,99678.53
2023-01-15T23:23:09.206Z,99672.31
2023-01-15T23:25:12.602Z,99669.00
2023-01-15T23:27:14.199Z,99677.28
2023-01-15T23:29:15.845Z,99675.00
2023-01-15T23:31:18.340Z,99677.91
2023-01-15T23:33:19.980Z,99668.56
2023-01-15T23:35:21.651Z,99671.91
2023-01-15T23:37:23.338Z,99666.91
2023-01-15T23:39:26.404Z,99670.63
2023-01-15T23:41:28.103Z,99684.16
2023-01-15T23:43:29.641Z,99681.88
2023-01-15T23:45:31.141Z,99688.28
2023-01-15T23:47:32.688Z,99679.59
2023-01-15T23:49:38.328Z,99685.78
2023-01-15T23:51:41.742Z,99685.38
2023-01-15T23:53:43.423Z,99674.56
2023-01-15T23:55:46.429Z,99674.78
2023-01-15T23:57:48.427Z,99696.59
2023-01-15T23:59:51.198Z,99677.69
